sensor_id;sensor_type;location;lat;lon;timestamp;pressure;altitude;pressure_sealevel;temperature;humidity
37972;BME280;23794;48.234;8.344;2023-02-01T00:01:08;94965.63;;;0.80;81.19
37972;BME280;23794;48.234;8.344;2023-02-01T00:03:35;94948.03;;;0.74;81.35
37972;BME280;23794;48.234;8.344;2023-02-01T00:06:02;94938.03;;;0.74;81.35
37972;BME280;23794;48.234;8.344;2023-02-01T00:08:29;94938.34;;;0.73;81.42
37972;BME280;23794;48.234;8.344;2023-02-01T00:11:05;94929.78;;;0.80;81.19
37972;BME280;23794;48.234;8.344;2023-02-01T00:13:33;94942.16;;;0.81;81.10
37972;BME280;23794;48.234;8.344;2023-02-01T00:16:20;94929.31;;;0.78;81.41
37972;BME280;23794;48.234;8.344;2023-02-01T00:18:49;94936.28;;;0.79;81.67
37972;BME280;23794;48.234;8.344;2023-02-01T00:21:20;94933.44;;;0.75;81.91
37972;BME280;23794;48.234;8.344;2023-02-01T00:23:47;94930.09;;;0.78;81.96
37972;BME280;23794;48.234;8.344;2023-02-01T00:26:16;94928.34;;;0.82;81.75
37972;BME280;23794;48.234;8.344;2023-02-01T00:28:44;94923.88;;;0.86;81.88
37972;BME280;23794;48.234;8.344;2023-02-01T00:31:11;94929.94;;;0.83;81.83
37972;BME280;23794;48.234;8.344;2023-02-01T00:33:38;94925.16;;;0.80;81.94
37972;BME280;23794;48.234;8.344;2023-02-01T00:36:07;94923.13;;;0.77;81.94
37972;BME280;23794;48.234;8.344;2023-02-01T00:38:36;94922.94;;;0.82;81.68
37972;BME280;23794;48.234;8.344;2023-02-01T00:41:07;94920.88;;;0.88;81.79
37972;BME280;23794;48.234;8.344;2023-02-01T00:43:36;94919.75;;;0.89;81.80
37972;BME280;23794;48.234;8.344;2023-02-01T00:46:03;94911.97;;;0.87;81.63
37972;BME280;23794;48.234;8.344;2023-02-01T00:48:30;94915.78;;;0.95;80.83
37972;BME280;23794;48.234;8.344;2023-02-01T00:51:04;94915.31;;;0.93;81.33
37972;BME280;23794;48.234;8.344;2023-02-01T00:53:32;94920.72;;;0.93;81.00
37972;BME280;23794;48.234;8.344;2023-02-01T00:55:59;94918.34;;;0.92;81.31
37972;BME280;23794;48.234;8.344;2023-02-01T00:58:26;94923.72;;;0.92;81.15
37972;BME280;23794;48.234;8.344;2023-02-01T01:01:20;94916.28;;;0.88;81.44
37972;BME280;23794;48.234;8.344;2023-02-01T01:03:50;94914.69;;;0.87;81.40
37972;BME280;23794;48.234;8.344;2023-02-01T01:06:21;94921.66;;;0.88;81.27
37972;BME280;23794;48.234;8.344;2023-02-01T01:08:51;94909.13;;;0.93;81.47
37972;BME280;23794;48.234;8.344;2023-02-01T01:11:22;94902.78;;;0.88;81.26
37972;BME280;23794;48.234;8.344;2023-02-01T01:13:51;94904.53;;;0.93;81.44
37972;BME280;23794;48.234;8.344;2023-02-01T01:16:19;94889.13;;;0.94;81.38
37972;BME280;23794;48.234;8.344;2023-02-01T01:18:47;94887.38;;;0.89;81.16
37972;BME280;23794;48.234;8.344;2023-02-01T01:21:15;94882.81;;;0.81;81.47
37972;BME280;23794;48.234;8.344;2023-02-01T01:23:43;94876.00;;;0.83;81.47
37972;BME280;23794;48.234;8.344;2023-02-01T01:26:15;94885.16;;;0.91;81.42
37972;BME280;23794;48.234;8.344;2023-02-01T01:28:42;94875.47;;;0.90;81.01
37972;BME280;23794;48.234;8.344;2023-02-01T01:31:10;94871.19;;;0.89;81.09
37972;BME280;23794;48.234;8.344;2023-02-01T01:33:38;94882.31;;;0.87;81.19
37972;BME280;23794;48.234;8.344;2023-02-01T01:36:09;94878.66;;;0.92;80.87
37972;BME280;23794;48.234;8.344;2023-02-01T01:38:39;94888.19;;;0.89;81.25
37972;BME280;23794;48.234;8.344;2023-02-01T01:41:08;94889.00;;;0.81;81.67
37972;BME280;23794;48.234;8.344;2023-02-01T01:43:57;94882.78;;;0.89;81.25
37972;BME280;23794;48.234;8.344;2023-02-01T01:49:17;94882.63;;;0.86;81.17
37972;BME280;23794;48.234;8.344;2023-02-01T01:51:56;94885.34;;;0.86;81.70
37972;BME280;23794;48.234;8.344;2023-02-01T01:54:33;94882.50;;;0.82;81.62
37972;BME280;23794;48.234;8.344;2023-02-01T01:57:07;94878.03;;;0.86;81.47
37972;BME280;23794;48.234;8.344;2023-02-01T01:59:37;94881.00;;;0.94;81.56
37972;BME280;23794;48.234;8.344;2023-02-01T02:02:05;94886.75;;;0.92;81.49
37972;BME280;23794;48.234;8.344;2023-02-01T02:04:32;94875.47;;;0.99;81.12
37972;BME280;23794;48.234;8.344;2023-02-01T02:07:12;94871.50;;;0.96;81.27
37972;BME280;23794;48.234;8.344;2023-02-01T02:09:40;94878.97;;;0.90;81.58
37972;BME280;23794;48.234;8.344;2023-02-01T02:12:25;94874.88;;;0.84;81.59
37972;BME280;23794;48.234;8.344;2023-02-01T02:14:51;94875.47;;;0.90;81.59
37972;BME280;23794;48.234;8.344;2023-02-01T02:17:55;94860.25;;;0.94;81.57
37972;BME280;23794;48.234;8.344;2023-02-01T02:26:53;94852.97;;;0.86;81.65
37972;BME280;23794;48.234;8.344;2023-02-01T02:35:51;94847.25;;;0.87;81.66
37972;BME280;23794;48.234;8.344;2023-02-01T02:38:30;94855.53;;;0.82;81.54
37972;BME280;23794;48.234;8.344;2023-02-01T02:43:51;94847.09;;;0.84;81.64
37972;BME280;23794;48.234;8.344;2023-02-01T02:46:47;94829.47;;;0.86;81.07
37972;BME280;23794;48.234;8.344;2023-02-01T02:55:58;94834.13;;;0.68;81.70
37972;BME280;23794;48.234;8.344;2023-02-01T02:58:45;94829.06;;;0.67;81.79
37972;BME280;23794;48.234;8.344;2023-02-01T03:01:32;94825.28;;;0.68;81.87
37972;BME280;23794;48.234;8.344;2023-02-01T03:04:18;94821.31;;;0.65;81.87
37972;BME280;23794;48.234;8.344;2023-02-01T03:06:48;94828.94;;;0.63;81.74
37972;BME280;23794;48.234;8.344;2023-02-01T03:09:24;94823.19;;;0.65;81.87
37972;BME280;23794;48.234;8.344;2023-02-01T03:11:58;94825.91;;;0.65;82.54
37972;BME280;23794;48.234;8.344;2023-02-01T03:14:50;94828.25;;;0.66;81.75
37972;BME280;23794;48.234;8.344;2023-02-01T03:17:22;94822.38;;;0.73;81.63
37972;BME280;23794;48.234;8.344;2023-02-01T03:19:53;94825.56;;;0.75;81.74
37972;BME280;23794;48.234;8.344;2023-02-01T03:22:22;94820.50;;;0.73;81.76
37972;BME280;23794;48.234;8.344;2023-02-01T03:24:55;94833.84;;;0.70;81.72
37972;BME280;23794;48.234;8.344;2023-02-01T03:28:08;94833.03;;;0.69;82.00
37972;BME280;23794;48.234;8.344;2023-02-01T03:30:40;94848.88;;;0.71;81.67
37972;BME280;23794;48.234;8.344;2023-02-01T03:33:13;94836.53;;;0.70;81.36
37972;BME280;23794;48.234;8.344;2023-02-01T03:36:01;94836.19;;;0.71;81.15
37972;BME280;23794;48.234;8.344;2023-02-01T03:41:39;94828.59;;;0.65;81.59
37972;BME280;23794;48.234;8.344;2023-02-01T03:44:16;94828.94;;;0.63;81.64
37972;BME280;23794;48.234;8.344;2023-02-01T03:47:05;94846.25;;;0.53;82.11
37972;BME280;23794;48.234;8.344;2023-02-01T03:49:39;94850.84;;;0.53;82.23
37972;BME280;23794;48.234;8.344;2023-02-01T03:52:12;94853.81;;;0.60;82.03
37972;BME280;23794;48.234;8.344;2023-02-01T03:54:42;94850.03;;;0.61;81.83
37972;BME280;23794;48.234;8.344;2023-02-01T03:57:14;94854.59;;;0.69;81.27
37972;BME280;23794;48.234;8.344;2023-02-01T03:59:44;94864.75;;;0.64;81.32
37972;BME280;23794;48.234;8.344;2023-02-01T04:02:12;94875.09;;;0.53;81.83
37972;BME280;23794;48.234;8.344;2023-02-01T04:04:39;94867.50;;;0.46;81.96
37972;BME280;23794;48.234;8.344;2023-02-01T04:07:06;94873.84;;;0.50;81.59
37972;BME280;23794;48.234;8.344;2023-02-01T04:09:33;94873.84;;;0.50;81.69
37972;BME280;23794;48.234;8.344;2023-02-01T04:11:59;94871.63;;;0.52;81.67
37972;BME280;23794;48.234;8.344;2023-02-01T04:14:26;94865.91;;;0.54;81.88
37972;BME280;23794;48.234;8.344;2023-02-01T04:16:53;94854.19;;;0.50;81.89
37972;BME280;23794;48.234;8.344;2023-02-01T04:19:19;94846.25;;;0.53;81.86
37972;BME280;23794;48.234;8.344;2023-02-01T04:21:46;94839.13;;;0.49;81.89
37972;BME280;23794;48.234;8.344;2023-02-01T04:24:13;94845.44;;;0.53;81.77
37972;BME280;23794;48.234;8.344;2023-02-01T04:26:40;94840.69;;;0.50;82.12
37972;BME280;23794;48.234;8.344;2023-02-01T04:29:08;94822.94;;;0.49;82.41
37972;BME280;23794;48.234;8.344;2023-02-01T04:31:35;94823.09;;;0.52;82.15
37972;BME280;23794;48.234;8.344;2023-02-01T04:34:03;94822.28;;;0.61;82.05
37972;BME280;23794;48.234;8.344;2023-02-01T04:36:29;94807.03;;;0.65;81.74
37972;BME280;23794;48.234;8.344;2023-02-01T04:38:56;94799.59;;;0.62;81.58
37972;BME280;23794;48.234;8.344;2023-02-01T04:41:22;94801.81;;;0.60;81.66
37972;BME280;23794;48.234;8.344;2023-02-01T04:43:50;94809.38;;;0.66;81.35
37972;BME280;23794;48.234;8.344;2023-02-01T04:46:18;94803.56;;;0.64;81.77
37972;BME280;23794;48.234;8.344;2023-02-01T04:48:45;94795.59;;;0.68;81.46
37972;BME280;23794;48.234;8.344;2023-02-01T04:51:12;94812.56;;;0.68;81.49
37972;BME280;23794;48.234;8.344;2023-02-01T04:53:39;94816.06;;;0.69;81.25
37972;BME280;23794;48.234;8.344;2023-02-01T04:56:06;94819.53;;;0.69;81.15
37972;BME280;23794;48.234;8.344;2023-02-01T04:58:32;94818.25;;;0.76;81.39
37972;BME280;23794;48.234;8.344;2023-02-01T05:01:02;94822.88;;;0.75;81.66
37972;BME280;23794;48.234;8.344;2023-02-01T05:03:34;94823.81;;;0.70;81.53
37972;BME280;23794;48.234;8.344;2023-02-01T05:06:01;94809.72;;;0.73;81.60
37972;BME280;23794;48.234;8.344;2023-02-01T05:08:31;94813.66;;;0.76;81.33
37972;BME280;23794;48.234;8.344;2023-02-01T05:10:58;94817.47;;;0.75;81.56
37972;BME280;23794;48.234;8.344;2023-02-01T05:13:25;94809.56;;;0.70;81.52
37972;BME280;23794;48.234;8.344;2023-02-01T05:16:10;94824.91;;;0.78;81.06
37972;BME280;23794;48.234;8.344;2023-02-01T05:18:37;94827.31;;;0.71;81.58
37972;BME280;23794;48.234;8.344;2023-02-01T05:21:04;94822.25;;;0.69;81.15
37972;BME280;23794;48.234;8.344;2023-02-01T05:23:30;94835.88;;;0.73;81.57
37972;BME280;23794;48.234;8.344;2023-02-01T05:26:01;94832.06;;;0.74;81.15
37972;BME280;23794;48.234;8.344;2023-02-01T05:28:28;94826.97;;;0.81;80.84
37972;BME280;23794;48.234;8.344;2023-02-01T05:30:55;94815.84;;;0.83;80.70
37972;BME280;23794;48.234;8.344;2023-02-01T05:33:22;94823.16;;;0.82;80.64
37972;BME280;23794;48.234;8.344;2023-02-01T05:35:48;94810.72;;;0.90;80.61
37972;BME280;23794;48.234;8.344;2023-02-01T05:38:16;94809.38;;;0.75;81.33
37972;BME280;23794;48.234;8.344;2023-02-01T05:40:43;94813.69;;;0.67;81.55
37972;BME280;23794;48.234;8.344;2023-02-01T05:43:15;94812.72;;;0.72;81.40
37972;BME280;23794;48.234;8.344;2023-02-01T05:45:42;94811.88;;;0.80;81.07
37972;BME280;23794;48.234;8.344;2023-02-01T05:48:09;94819.84;;;0.77;80.47
37972;BME280;23794;48.234;8.344;2023-02-01T05:50:36;94832.03;;;0.83;80.23
37972;BME280;23794;48.234;8.344;2023-02-01T05:53:07;94822.97;;;0.87;80.69
37972;BME280;23794;48.234;8.344;2023-02-01T05:55:34;94832.97;;;0.87;81.00
37972;BME280;23794;48.234;8.344;2023-02-01T05:58:01;94837.13;;;0.84;81.01
37972;BME280;23794;48.234;8.344;2023-02-01T06:00:27;94852.63;;;0.87;80.38
37972;BME280;23794;48.234;8.344;2023-02-01T06:02:54;94844.22;;;0.89;80.64
37972;BME280;23794;48.234;8.344;2023-02-01T06:05:21;94846.13;;;0.88;80.66
37972;BME280;23794;48.234;8.344;2023-02-01T06:07:48;94859.78;;;0.92;80.26
37972;BME280;23794;48.234;8.344;2023-02-01T06:10:19;94864.38;;;0.92;80.63
37972;BME280;23794;48.234;8.344;2023-02-01T06:12:46;94861.22;;;0.89;80.76
37972;BME280;23794;48.234;8.344;2023-02-01T06:15:14;94868.81;;;0.87;80.95
37972;BME280;23794;48.234;8.344;2023-02-01T06:17:45;94872.63;;;0.86;80.74
37972;BME280;23794;48.234;8.344;2023-02-01T06:20:14;94860.25;;;0.85;80.85
37972;BME280;23794;48.234;8.344;2023-02-01T06:22:41;94868.81;;;0.87;80.17
37972;BME280;23794;48.234;8.344;2023-02-01T06:25:09;94872.47;;;0.92;80.52
37972;BME280;23794;48.234;8.344;2023-02-01T06:27:36;94867.09;;;0.83;80.62
37972;BME280;23794;48.234;8.344;2023-02-01T06:30:05;94870.91;;;0.82;80.57
37972;BME280;23794;48.234;8.344;2023-02-01T06:32:33;94872.47;;;0.83;80.59
37972;BME280;23794;48.234;8.344;2023-02-01T06:35:00;94874.25;;;0.79;80.88
37972;BME280;23794;48.234;8.344;2023-02-01T06:37:27;94881.41;;;0.66;81.41
37972;BME280;23794;48.234;8.344;2023-02-01T06:39:56;94880.94;;;0.64;81.50
37972;BME280;23794;48.234;8.344;2023-02-01T06:42:23;94874.28;;;0.70;81.09
37972;BME280;23794;48.234;8.344;2023-02-01T06:44:51;94880.94;;;0.72;80.86
37972;BME280;23794;48.234;8.344;2023-02-01T06:47:17;94881.56;;;0.69;81.17
37972;BME280;23794;48.234;8.344;2023-02-01T06:49:44;94883.00;;;0.67;81.04
37972;BME280;23794;48.234;8.344;2023-02-01T06:52:11;94875.25;;;0.65;81.08
37972;BME280;23794;48.234;8.344;2023-02-01T06:54:41;94869.69;;;0.62;81.53
37972;BME280;23794;48.234;8.344;2023-02-01T06:57:07;94863.97;;;0.63;81.46
37972;BME280;23794;48.234;8.344;2023-02-01T06:59:34;94861.28;;;0.63;81.49
37972;BME280;23794;48.234;8.344;2023-02-01T07:02:01;94852.25;;;0.59;81.46
37972;BME280;23794;48.234;8.344;2023-02-01T07:04:27;94867.00;;;0.62;81.72
37972;BME280;23794;48.234;8.344;2023-02-01T07:06:54;94867.63;;;0.58;81.61
37972;BME280;23794;48.234;8.344;2023-02-01T07:09:21;94867.00;;;0.62;81.32
37972;BME280;23794;48.234;8.344;2023-02-01T07:11:47;94859.22;;;0.60;81.48
37972;BME280;23794;48.234;8.344;2023-02-01T07:14:14;94874.16;;;0.49;82.09
37972;BME280;23794;48.234;8.344;2023-02-01T07:16:41;94876.50;;;0.59;81.85
37972;BME280;23794;48.234;8.344;2023-02-01T07:19:07;94873.81;;;0.68;81.31
37972;BME280;23794;48.234;8.344;2023-02-01T07:21:34;94876.97;;;0.61;81.73
37972;BME280;23794;48.234;8.344;2023-02-01T07:24:01;94879.50;;;0.66;81.44
37972;BME280;23794;48.234;8.344;2023-02-01T07:26:27;94880.59;;;0.74;80.87
37972;BME280;23794;48.234;8.344;2023-02-01T07:28:54;94863.94;;;0.81;80.92
37972;BME280;23794;48.234;8.344;2023-02-01T07:31:22;94873.28;;;0.83;80.79
37972;BME280;23794;48.234;8.344;2023-02-01T07:33:49;94864.69;;;0.90;80.69
37972;BME280;23794;48.234;8.344;2023-02-01T07:36:18;94863.94;;;0.81;81.10
37972;BME280;23794;48.234;8.344;2023-02-01T07:38:45;94867.91;;;0.74;80.95
37972;BME280;23794;48.234;8.344;2023-02-01T07:41:15;94884.91;;;0.75;81.27
37972;BME280;23794;48.234;8.344;2023-02-01T07:43:42;94877.72;;;0.88;81.04
37972;BME280;23794;48.234;8.344;2023-02-01T07:46:10;94870.69;;;0.96;80.84
37972;BME280;23794;48.234;8.344;2023-02-01T07:48:37;94871.66;;;0.91;80.72
37972;BME280;23794;48.234;8.344;2023-02-01T07:51:12;94863.28;;;0.93;80.69
37972;BME280;23794;48.234;8.344;2023-02-01T07:53:40;94861.53;;;0.79;81.14
37972;BME280;23794;48.234;8.344;2023-02-01T07:56:15;94889.47;;;0.83;80.77
37972;BME280;23794;48.234;8.344;2023-02-01T07:58:47;94889.94;;;0.85;80.83
37972;BME280;23794;48.234;8.344;2023-02-01T08:01:20;94887.56;;;0.84;80.71
37972;BME280;23794;48.234;8.344;2023-02-01T08:03:58;94895.50;;;0.80;80.73
37972;BME280;23794;48.234;8.344;2023-02-01T08:06:30;94900.78;;;0.68;81.52
37972;BME280;23794;48.234;8.344;2023-02-01T08:08:57;94901.56;;;0.68;81.22
37972;BME280;23794;48.234;8.344;2023-02-01T08:11:25;94900.75;;;0.77;81.08
37972;BME280;23794;48.234;8.344;2023-02-01T08:13:52;94900.09;;;0.88;81.12
37972;BME280;23794;48.234;8.344;2023-02-01T08:16:20;94906.09;;;0.85;80.46
37972;BME280;23794;48.234;8.344;2023-02-01T08:18:47;94901.19;;;0.96;80.45
37972;BME280;23794;48.234;8.344;2023-02-01T08:21:26;94896.03;;;1.12;80.13
37972;BME280;23794;48.234;8.344;2023-02-01T08:23:54;94900.28;;;1.22;79.29
37972;BME280;23794;48.234;8.344;2023-02-01T08:26:24;94904.09;;;1.30;79.17
37972;BME280;23794;48.234;8.344;2023-02-01T08:28:56;94911.72;;;1.28;78.70
37972;BME280;23794;48.234;8.344;2023-02-01T08:31:24;94913.16;;;1.25;79.12
37972;BME280;23794;48.234;8.344;2023-02-01T08:33:54;94909.84;;;1.19;78.93
37972;BME280;23794;48.234;8.344;2023-02-01T08:36:22;94909.78;;;1.28;78.99
37972;BME280;23794;48.234;8.344;2023-02-01T08:38:49;94913.38;;;1.41;78.55
37972;BME280;23794;48.234;8.344;2023-02-01T08:41:18;94903.69;;;1.49;78.56
37972;BME280;23794;48.234;8.344;2023-02-01T08:43:45;94906.19;;;1.54;78.18
37972;BME280;23794;48.234;8.344;2023-02-01T08:46:12;94917.75;;;1.54;77.25
37972;BME280;23794;48.234;8.344;2023-02-01T08:48:39;94915.47;;;1.65;77.67
37972;BME280;23794;48.234;8.344;2023-02-01T08:51:11;94896.53;;;1.74;77.72
37972;BME280;23794;48.234;8.344;2023-02-01T08:53:38;94897.66;;;1.73;76.95
37972;BME280;23794;48.234;8.344;2023-02-01T08:56:11;94885.53;;;1.79;77.03
37972;BME280;23794;48.234;8.344;2023-02-01T08:58:38;94889.16;;;1.83;76.70
37972;BME280;23794;48.234;8.344;2023-02-01T09:01:13;94879.56;;;1.95;75.96
37972;BME280;23794;48.234;8.344;2023-02-01T09:03:40;94881.47;;;2.15;76.11
37972;BME280;23794;48.234;8.344;2023-02-01T09:06:10;94890.81;;;2.39;74.77
37972;BME280;23794;48.234;8.344;2023-02-01T09:08:38;94901.97;;;2.38;74.03
37972;BME280;23794;48.234;8.344;2023-02-01T09:11:08;94899.41;;;2.41;74.22
37972;BME280;23794;48.234;8.344;2023-02-01T09:13:36;94905.19;;;2.31;74.97
37972;BME280;23794;48.234;8.344;2023-02-01T09:16:03;94899.06;;;2.22;74.42
37972;BME280;23794;48.234;8.344;2023-02-01T09:18:30;94916.47;;;2.12;74.30
37972;BME280;23794;48.234;8.344;2023-02-01T09:20:57;94921.34;;;1.97;74.77
37972;BME280;23794;48.234;8.344;2023-02-01T09:23:24;94923.13;;;1.93;75.13
37972;BME280;23794;48.234;8.344;2023-02-01T09:25:51;94931.81;;;1.99;75.37
37972;BME280;23794;48.234;8.344;2023-02-01T09:28:19;94936.81;;;1.88;75.70
37972;BME280;23794;48.234;8.344;2023-02-01T09:30:45;94940.97;;;1.85;75.74
37972;BME280;23794;48.234;8.344;2023-02-01T09:33:13;94932.84;;;1.85;75.89
37972;BME280;23794;48.234;8.344;2023-02-01T09:35:39;94943.44;;;1.69;76.07
37972;BME280;23794;48.234;8.344;2023-02-01T09:38:06;94935.69;;;1.59;76.60
37972;BME280;23794;48.234;8.344;2023-02-01T09:40:34;94947.16;;;1.56;76.87
37972;BME280;23794;48.234;8.344;2023-02-01T09:43:37;94941.97;;;1.42;77.98
37972;BME280;23794;48.234;8.344;2023-02-01T09:46:23;94939.59;;;1.41;78.41
37972;BME280;23794;48.234;8.344;2023-02-01T09:48:57;94941.63;;;1.52;78.02
37972;BME280;23794;48.234;8.344;2023-02-01T09:51:30;94940.69;;;1.48;78.15
37972;BME280;23794;48.234;8.344;2023-02-01T09:54:13;94937.78;;;1.53;78.42
37972;BME280;23794;48.234;8.344;2023-02-01T09:56:46;94939.06;;;1.56;78.40
37972;BME280;23794;48.234;8.344;2023-02-01T10:02:02;94946.63;;;1.63;78.41
37972;BME280;23794;48.234;8.344;2023-02-01T10:04:30;94950.59;;;1.65;78.42
37972;BME280;23794;48.234;8.344;2023-02-01T10:07:06;94950.94;;;1.64;78.00
37972;BME280;23794;48.234;8.344;2023-02-01T10:24:25;94975.19;;;1.73;78.12
37972;BME280;23794;48.234;8.344;2023-02-01T10:26:26;94984.09;;;1.73;78.17
37972;BME280;23794;48.234;8.344;2023-02-01T10:29:01;94978.09;;;1.67;78.30
37972;BME280;23794;48.234;8.344;2023-02-01T10:31:32;94973.16;;;1.61;78.28
37972;BME280;23794;48.234;8.344;2023-02-01T10:34:14;94959.84;;;1.64;78.23
37972;BME280;23794;48.234;8.344;2023-02-01T10:36:53;94965.63;;;1.84;78.01
37972;BME280;23794;48.234;8.344;2023-02-01T10:39:21;94959.97;;;1.98;77.69
37972;BME280;23794;48.234;8.344;2023-02-01T10:41:48;94950.91;;;2.24;76.68
37972;BME280;23794;48.234;8.344;2023-02-01T10:44:19;94946.44;;;2.28;76.13
37972;BME280;23794;48.234;8.344;2023-02-01T10:46:49;94947.25;;;2.41;75.88
37972;BME280;23794;48.234;8.344;2023-02-01T10:49:24;94955.25;;;2.37;76.05
37972;BME280;23794;48.234;8.344;2023-02-01T10:52:15;94944.50;;;2.28;75.92
37972;BME280;23794;48.234;8.344;2023-02-01T10:54:43;94945.41;;;2.11;75.85
37972;BME280;23794;48.234;8.344;2023-02-01T10:57:24;94933.25;;;1.96;76.69
37972;BME280;23794;48.234;8.344;2023-02-01T10:59:52;94937.63;;;1.89;77.09
37972;BME280;23794;48.234;8.344;2023-02-01T11:02:34;94940.50;;;1.83;77.21
37972;BME280;23794;48.234;8.344;2023-02-01T11:05:09;94948.31;;;1.76;77.85
37972;BME280;23794;48.234;8.344;2023-02-01T11:07:39;94940.97;;;1.85;77.90
37972;BME280;23794;48.234;8.344;2023-02-01T11:10:39;94935.53;;;2.15;77.96
37972;BME280;23794;48.234;8.344;2023-02-01T11:13:14;94930.53;;;2.81;76.62
37972;BME280;23794;48.234;8.344;2023-02-01T11:15:46;94933.03;;;3.32;74.95
37972;BME280;23794;48.234;8.344;2023-02-01T11:18:28;94924.94;;;3.69;74.19
37972;BME280;23794;48.234;8.344;2023-02-01T11:20:55;94926.16;;;3.97;73.42
37972;BME280;23794;48.234;8.344;2023-02-01T11:23:27;94930.28;;;4.31;71.72
37972;BME280;23794;48.234;8.344;2023-02-01T11:25:57;94931.53;;;4.34;70.88
37972;BME280;23794;48.234;8.344;2023-02-01T11:28:27;94934.03;;;4.14;70.63
37972;BME280;23794;48.234;8.344;2023-02-01T11:30:57;94926.66;;;4.27;70.82
37972;BME280;23794;48.234;8.344;2023-02-01T11:33:31;94927.13;;;4.29;69.23
37972;BME280;23794;48.234;8.344;2023-02-01T11:36:10;94929.41;;;4.55;69.94
37972;BME280;23794;48.234;8.344;2023-02-01T11:38:38;94917.53;;;4.89;67.83
37972;BME280;23794;48.234;8.344;2023-02-01T11:41:21;94908.47;;;4.68;67.57
37972;BME280;23794;48.234;8.344;2023-02-01T11:43:57;94911.75;;;4.90;66.96
37972;BME280;23794;48.234;8.344;2023-02-01T11:46:33;94912.88;;;4.89;67.40
37972;BME280;23794;48.234;8.344;2023-02-01T11:49:32;94890.97;;;5.42;65.60
37972;BME280;23794;48.234;8.344;2023-02-01T12:03:51;94896.59;;;4.89;64.43
37972;BME280;23794;48.234;8.344;2023-02-01T12:09:11;94885.66;;;4.16;66.10
37972;BME280;23794;48.234;8.344;2023-02-01T12:15:03;94883.88;;;4.08;66.11
37972;BME280;23794;48.234;8.344;2023-02-01T12:20:34;94877.03;;;3.73;67.66
37972;BME280;23794;48.234;8.344;2023-02-01T12:26:22;94883.72;;;3.39;67.19
37972;BME280;23794;48.234;8.344;2023-02-01T12:31:42;94891.84;;;3.14;69.63
37972;BME280;23794;48.234;8.344;2023-02-01T12:34:39;94884.91;;;2.92;68.93
37972;BME280;23794;48.234;8.344;2023-02-01T12:42:41;94876.53;;;2.85;69.30
37972;BME280;23794;48.234;8.344;2023-02-01T12:45:19;94866.06;;;2.83;69.28
37972;BME280;23794;48.234;8.344;2023-02-01T12:47:52;94871.13;;;2.85;70.80
37972;BME280;23794;48.234;8.344;2023-02-01T12:50:25;94846.56;;;2.90;70.29
37972;BME280;23794;48.234;8.344;2023-02-01T12:53:01;94839.03;;;3.20;67.29
37972;BME280;23794;48.234;8.344;2023-02-01T12:55:41;94839.00;;;3.82;68.16
37972;BME280;23794;48.234;8.344;2023-02-01T12:58:20;94834.03;;;3.72;66.07
37972;BME280;23794;48.234;8.344;2023-02-01T13:00:54;94831.69;;;3.58;66.78
37972;BME280;23794;48.234;8.344;2023-02-01T13:03:38;94833.72;;;3.36;67.12
37972;BME280;23794;48.234;8.344;2023-02-01T13:08:47;94836.31;;;3.33;67.83
37972;BME280;23794;48.234;8.344;2023-02-01T13:11:35;94845.13;;;3.30;67.63
37972;BME280;23794;48.234;8.344;2023-02-01T13:16:45;94834.41;;;3.08;67.01
37972;BME280;23794;48.234;8.344;2023-02-01T13:19:38;94837.09;;;3.08;67.83
37972;BME280;23794;48.234;8.344;2023-02-01T13:22:11;94839.59;;;2.89;67.67
37972;BME280;23794;48.234;8.344;2023-02-01T13:24:42;94826.16;;;3.05;69.32
37972;BME280;23794;48.234;8.344;2023-02-01T13:27:14;94837.88;;;3.09;67.85
37972;BME280;23794;48.234;8.344;2023-02-01T13:41:28;94838.81;;;2.55;69.44
37972;BME280;23794;48.234;8.344;2023-02-01T13:44:08;94841.41;;;2.51;69.96
37972;BME280;23794;48.234;8.344;2023-02-01T13:46:40;94851.63;;;2.45;70.13
37972;BME280;23794;48.234;8.344;2023-02-01T13:49:30;94855.19;;;2.37;70.15
37972;BME280;23794;48.234;8.344;2023-02-01T13:51:58;94840.28;;;2.52;70.21
37972;BME280;23794;48.234;8.344;2023-02-01T13:54:31;94845.94;;;2.72;71.68
37972;BME280;23794;48.234;8.344;2023-02-01T13:56:59;94836.59;;;2.81;69.23
37972;BME280;23794;48.234;8.344;2023-02-01T13:59:44;94845.19;;;2.84;68.88
37972;BME280;23794;48.234;8.344;2023-02-01T14:05:10;94847.16;;;2.49;70.10
37972;BME280;23794;48.234;8.344;2023-02-01T14:13:28;94855.00;;;2.42;70.70
37972;BME280;23794;48.234;8.344;2023-02-01T14:26:41;94855.66;;;2.39;71.49
37972;BME280;23794;48.234;8.344;2023-02-01T14:32:01;94860.44;;;2.21;72.89
37972;BME280;23794;48.234;8.344;2023-02-01T14:34:48;94848.06;;;2.32;71.55
37972;BME280;23794;48.234;8.344;2023-02-01T14:50:34;94857.47;;;2.14;71.37
37972;BME280;23794;48.234;8.344;2023-02-01T14:55:45;94859.41;;;2.13;71.48
37972;BME280;23794;48.234;8.344;2023-02-01T14:58:21;94850.63;;;2.16;71.52
37972;BME280;23794;48.234;8.344;2023-02-01T15:00:56;94850.94;;;2.15;72.13
37972;BME280;23794;48.234;8.344;2023-02-01T15:06:20;94852.94;;;2.06;72.07
37972;BME280;23794;48.234;8.344;2023-02-01T15:08:49;94874.88;;;2.04;71.94
37972;BME280;23794;48.234;8.344;2023-02-01T15:11:18;94872.22;;;1.95;72.28
37972;BME280;23794;48.234;8.344;2023-02-01T15:13:52;94869.34;;;2.00;71.65
37972;BME280;23794;48.234;8.344;2023-02-01T15:16:23;94869.41;;;1.92;71.58
37972;BME280;23794;48.234;8.344;2023-02-01T15:19:06;94885.03;;;1.86;71.67
37972;BME280;23794;48.234;8.344;2023-02-01T15:21:48;94882.13;;;1.91;71.91
37972;BME280;23794;48.234;8.344;2023-02-01T15:24:23;94885.47;;;1.88;72.11
37972;BME280;23794;48.234;8.344;2023-02-01T15:26:51;94886.59;;;1.87;72.26
37972;BME280;23794;48.234;8.344;2023-02-01T15:29:20;94892.16;;;1.91;72.24
37972;BME280;23794;48.234;8.344;2023-02-01T15:31:50;94892.81;;;1.88;72.35
37972;BME280;23794;48.234;8.344;2023-02-01T15:34:18;94896.63;;;1.87;72.09
37972;BME280;23794;48.234;8.344;2023-02-01T15:36:46;94903.28;;;1.89;72.29
37972;BME280;23794;48.234;8.344;2023-02-01T15:39:28;94897.94;;;1.80;73.47
37972;BME280;23794;48.234;8.344;2023-02-01T15:42:12;94892.19;;;1.82;73.01
37972;BME280;23794;48.234;8.344;2023-02-01T15:44:44;94894.28;;;1.76;73.36
37972;BME280;23794;48.234;8.344;2023-02-01T15:47:23;94898.56;;;1.77;73.22
37972;BME280;23794;48.234;8.344;2023-02-01T15:49:53;94898.91;;;1.76;73.21